Time;durP1;ratioP1;P1;durP2;ratioP2;P2;SDS_P1;SDS_P2;PMS_P1;PMS_P2;Temp;Humidity;BMP_temperature;BMP_pressure;BME280_temperature;BME280_humidity;BME280_pressure;Samples;Min_cycle;Max_cycle;Signal;HPM_P1;HPM_P2
2020/12/21 00:01:17;;;;;;;1.50;1.40;;;;;;;;;;5069893;28;20526;-71
2020/12/21 00:03:43;;;;;;;1.33;1.23;;;;;;;;;;5069767;28;20380;-71
2020/12/21 00:06:12;;;;;;;2.95;2.10;;;;;;;;;;5067620;28;20248;-71
2020/12/21 00:08:39;;;;;;;2.08;1.70;;;;;;;;;;5069585;28;20029;-71
2020/12/21 00:11:05;;;;;;;1.70;1.60;;;;;;;;;;5070224;28;20036;-71
2020/12/21 00:13:31;;;;;;;2.20;1.70;;;;;;;;;;5069345;28;20032;-71
2020/12/21 00:15:57;;;;;;;1.60;1.45;;;;;;;;;;5068418;28;20029;-71
2020/12/21 00:18:23;;;;;;;1.15;1.05;;;;;;;;;;5068563;28;20036;-71
2020/12/21 00:20:49;;;;;;;1.58;1.45;;;;;;;;;;5069118;28;20517;-71
2020/12/21 00:23:16;;;;;;;2.65;1.48;;;;;;;;;;5069670;28;20048;-71
2020/12/21 00:25:42;;;;;;;1.75;1.20;;;;;;;;;;5068922;28;20633;-71
2020/12/21 00:28:08;;;;;;;1.98;1.50;;;;;;;;;;5069289;28;20105;-71
2020/12/21 00:30:34;;;;;;;1.63;1.33;;;;;;;;;;5068960;28;20502;-71
2020/12/21 00:33:00;;;;;;;1.58;1.35;;;;;;;;;;5069900;28;20028;-71
2020/12/21 00:35:27;;;;;;;1.40;1.27;;;;;;;;;;5067677;28;20047;-71
2020/12/21 00:37:53;;;;;;;1.48;1.30;;;;;;;;;;5069384;28;20111;-71
2020/12/21 00:40:19;;;;;;;1.48;1.35;;;;;;;;;;5068862;28;20327;-70
2020/12/21 00:42:45;;;;;;;1.95;1.77;;;;;;;;;;5069245;28;20025;-71
2020/12/21 00:45:11;;;;;;;2.20;1.73;;;;;;;;;;5069325;28;20036;-71
2020/12/21 00:47:38;;;;;;;1.52;1.40;;;;;;;;;;5068564;28;20035;-70
2020/12/21 00:50:05;;;;;;;1.92;1.67;;;;;;;;;;5069005;28;20398;-70
2020/12/21 00:52:31;;;;;;;2.78;1.63;;;;;;;;;;5068289;28;20032;-70
2020/12/21 00:54:57;;;;;;;2.08;1.45;;;;;;;;;;5068811;28;20052;-70
2020/12/21 00:57:23;;;;;;;1.35;1.25;;;;;;;;;;5068787;28;20548;-70
2020/12/21 00:59:49;;;;;;;1.33;1.23;;;;;;;;;;5068181;28;20020;-71
2020/12/21 01:02:15;;;;;;;2.33;1.92;;;;;;;;;;5069065;28;20036;-70
2020/12/21 01:04:41;;;;;;;1.67;1.38;;;;;;;;;;5067299;28;20032;-70
2020/12/21 01:07:07;;;;;;;1.55;1.20;;;;;;;;;;5068457;28;20029;-71
2020/12/21 01:09:33;;;;;;;1.73;1.48;;;;;;;;;;5068709;28;20033;-70
2020/12/21 01:11:59;;;;;;;2.13;1.52;;;;;;;;;;5068971;28;20040;-70
2020/12/21 01:14:25;;;;;;;1.77;1.17;;;;;;;;;;5067870;28;20021;-71
2020/12/21 01:16:53;;;;;;;2.15;1.58;;;;;;;;;;5068581;28;20048;-70
2020/12/21 01:19:19;;;;;;;1.70;1.60;;;;;;;;;;5068446;28;20384;-70
2020/12/21 01:21:45;;;;;;;2.25;1.77;;;;;;;;;;5068966;28;20063;-70
2020/12/21 01:24:11;;;;;;;2.15;1.50;;;;;;;;;;5068324;28;20020;-71
2020/12/21 01:26:37;;;;;;;1.58;1.30;;;;;;;;;;5067264;28;20036;-71
2020/12/21 01:29:03;;;;;;;1.98;1.88;;;;;;;;;;5069486;28;20016;-71
2020/12/21 01:31:30;;;;;;;1.40;1.00;;;;;;;;;;5068314;28;20166;-71
2020/12/21 01:33:56;;;;;;;2.03;1.48;;;;;;;;;;5068234;28;20036;-71
2020/12/21 01:36:22;;;;;;;2.25;1.52;;;;;;;;;;5066512;28;20039;-71
2020/12/21 01:38:48;;;;;;;1.25;1.10;;;;;;;;;;5068829;28;20356;-71
2020/12/21 01:41:14;;;;;;;1.65;1.30;;;;;;;;;;5068663;28;20021;-71
2020/12/21 01:43:40;;;;;;;1.52;1.30;;;;;;;;;;5068145;28;20089;-71
2020/12/21 01:46:11;;;;;;;1.60;1.50;;;;;;;;;;5068314;28;20028;-71
2020/12/21 01:48:38;;;;;;;3.03;2.35;;;;;;;;;;5068104;28;20315;-70
2020/12/21 01:51:05;;;;;;;1.95;1.75;;;;;;;;;;5068858;28;20024;-70
2020/12/21 01:53:32;;;;;;;1.33;1.25;;;;;;;;;;5067358;28;20040;-70
2020/12/21 01:55:59;;;;;;;2.90;2.00;;;;;;;;;;5068146;28;20029;-70
2020/12/21 01:58:25;;;;;;;2.30;1.30;;;;;;;;;;5068324;28;20020;-70
2020/12/21 02:00:52;;;;;;;1.70;1.60;;;;;;;;;;5068603;28;20028;-70
2020/12/21 02:03:18;;;;;;;1.27;1.15;;;;;;;;;;5067376;28;20478;-70
2020/12/21 02:05:44;;;;;;;2.47;1.77;;;;;;;;;;5065843;28;20398;-70
2020/12/21 02:08:10;;;;;;;2.05;1.30;;;;;;;;;;5068956;28;20025;-70
2020/12/21 02:10:36;;;;;;;2.65;1.73;;;;;;;;;;5066220;28;20028;-70
2020/12/21 02:13:03;;;;;;;1.25;1.10;;;;;;;;;;5067823;28;20465;-70
2020/12/21 02:15:29;;;;;;;1.15;1.05;;;;;;;;;;5067100;28;20024;-70
2020/12/21 02:17:55;;;;;;;2.17;1.98;;;;;;;;;;5067556;28;20020;-70
2020/12/21 02:20:32;;;;;;;1.70;1.45;;;;;;;;;;5067454;28;20104;-70
2020/12/21 02:22:58;;;;;;;2.85;1.13;;;;;;;;;;5067708;28;20036;-70
2020/12/21 02:25:24;;;;;;;1.67;1.52;;;;;;;;;;5065961;28;20527;-70
2020/12/21 02:27:50;;;;;;;2.80;1.63;;;;;;;;;;5067980;28;20037;-70
2020/12/21 02:30:16;;;;;;;1.25;1.10;;;;;;;;;;5067520;28;20062;-70
2020/12/21 02:32:43;;;;;;;1.25;1.08;;;;;;;;;;5067916;28;20567;-70
2020/12/21 02:35:09;;;;;;;0.90;0.80;;;;;;;;;;5067012;28;20024;-70
2020/12/21 02:37:35;;;;;;;1.63;1.00;;;;;;;;;;5066973;28;20033;-70
2020/12/21 02:40:01;;;;;;;1.10;1.00;;;;;;;;;;5068263;28;20317;-70
2020/12/21 02:42:27;;;;;;;4.57;2.00;;;;;;;;;;5066136;28;20028;-70
2020/12/21 02:44:53;;;;;;;1.40;1.30;;;;;;;;;;5067274;28;20112;-70
2020/12/21 02:47:20;;;;;;;1.55;1.15;;;;;;;;;;5066652;28;20082;-70
2020/12/21 02:49:46;;;;;;;1.08;1.00;;;;;;;;;;5067235;28;20032;-70
2020/12/21 02:52:12;;;;;;;1.30;1.13;;;;;;;;;;5068154;28;20033;-70
2020/12/21 02:54:38;;;;;;;2.63;1.63;;;;;;;;;;5066735;28;20561;-70
2020/12/21 02:57:05;;;;;;;1.42;1.33;;;;;;;;;;5067679;28;20031;-70
2020/12/21 02:59:31;;;;;;;2.60;0.63;;;;;;;;;;5067432;28;20261;-70
2020/12/21 03:01:57;;;;;;;1.08;1.08;;;;;;;;;;5067379;28;20032;-70
2020/12/21 03:04:23;;;;;;;0.80;0.80;;;;;;;;;;5064740;28;20444;-70
2020/12/21 03:06:49;;;;;;;0.60;0.60;;;;;;;;;;5067198;28;20044;-71
2020/12/21 03:09:15;;;;;;;2.10;1.50;;;;;;;;;;5067530;28;20032;-71
2020/12/21 03:11:44;;;;;;;1.10;1.00;;;;;;;;;;5067100;28;20024;-71
2020/12/21 03:14:11;;;;;;;0.75;0.73;;;;;;;;;;5067052;28;20120;-72
2020/12/21 03:16:37;;;;;;;0.90;0.90;;;;;;;;;;5066175;28;20035;-72
2020/12/21 03:19:04;;;;;;;1.00;0.60;;;;;;;;;;5067822;28;20529;-71
2020/12/21 03:21:30;;;;;;;0.73;0.63;;;;;;;;;;5067562;28;20028;-71
2020/12/21 03:23:56;;;;;;;0.98;0.90;;;;;;;;;;5070814;28;20040;-71
2020/12/21 03:26:23;;;;;;;1.08;0.98;;;;;;;;;;5069855;28;20025;-71
2020/12/21 03:28:49;;;;;;;0.68;0.68;;;;;;;;;;5071323;28;20052;-71
2020/12/21 03:31:15;;;;;;;1.10;0.93;;;;;;;;;;5071369;28;20024;-71
2020/12/21 03:33:41;;;;;;;0.73;0.60;;;;;;;;;;5069734;28;20025;-70
2020/12/21 03:36:07;;;;;;;1.70;1.08;;;;;;;;;;5068992;28;20034;-71
2020/12/21 03:38:33;;;;;;;1.00;0.73;;;;;;;;;;5069676;28;20040;-72
2020/12/21 03:40:59;;;;;;;1.95;1.02;;;;;;;;;;5071370;28;20487;-71
2020/12/21 03:43:25;;;;;;;0.70;0.70;;;;;;;;;;5069605;28;20603;-71
2020/12/21 03:45:51;;;;;;;1.23;1.13;;;;;;;;;;5070223;28;20123;-72
2020/12/21 03:48:18;;;;;;;1.15;0.90;;;;;;;;;;5070724;28;20070;-71
2020/12/21 03:50:44;;;;;;;1.00;0.80;;;;;;;;;;5070894;28;20028;-71
2020/12/21 03:53:10;;;;;;;0.98;0.68;;;;;;;;;;5070040;28;20356;-71
2020/12/21 03:55:36;;;;;;;1.00;0.93;;;;;;;;;;5069159;28;20440;-71
2020/12/21 03:58:02;;;;;;;0.60;0.60;;;;;;;;;;5070099;28;20478;-71
2020/12/21 04:00:29;;;;;;;0.47;0.47;;;;;;;;;;5070630;28;20082;-71
2020/12/21 04:02:55;;;;;;;1.15;0.77;;;;;;;;;;5070457;28;20368;-71
2020/12/21 04:05:21;;;;;;;0.95;0.82;;;;;;;;;;5067251;28;20059;-71
2020/12/21 04:07:48;;;;;;;1.00;0.90;;;;;;;;;;5070391;28;20016;-71
2020/12/21 04:10:14;;;;;;;1.08;0.98;;;;;;;;;;5070164;28;20039;-71
2020/12/21 04:12:40;;;;;;;1.05;0.85;;;;;;;;;;5069893;28;20078;-72
2020/12/21 04:15:06;;;;;;;1.13;0.70;;;;;;;;;;5069277;28;20029;-71
2020/12/21 04:17:32;;;;;;;0.57;0.57;;;;;;;;;;5068752;28;20386;-71
2020/12/21 04:19:59;;;;;;;0.50;0.50;;;;;;;;;;5070430;28;20025;-71
2020/12/21 04:22:25;;;;;;;0.88;0.68;;;;;;;;;;5069350;28;20024;-70
2020/12/21 04:24:51;;;;;;;0.40;0.40;;;;;;;;;;5069328;28;20036;-71
2020/12/21 04:27:17;;;;;;;1.23;0.70;;;;;;;;;;5069326;28;20045;-71
2020/12/21 04:29:43;;;;;;;0.70;0.60;;;;;;;;;;5068865;28;20440;-71
2020/12/21 04:32:09;;;;;;;0.30;0.30;;;;;;;;;;5070091;28;20043;-72
2020/12/21 04:34:35;;;;;;;0.90;0.70;;;;;;;;;;5067140;28;20028;-72
2020/12/21 04:37:02;;;;;;;0.55;0.52;;;;;;;;;;5068764;28;20482;-71
2020/12/21 04:39:28;;;;;;;1.00;0.57;;;;;;;;;;5069056;28;20035;-71
2020/12/21 04:41:55;;;;;;;0.52;0.52;;;;;;;;;;5069904;28;20024;-71
2020/12/21 04:44:22;;;;;;;0.47;0.47;;;;;;;;;;5068497;28;20033;-71
2020/12/21 04:46:49;;;;;;;0.40;0.40;;;;;;;;;;5069117;28;20039;-71
2020/12/21 04:49:16;;;;;;;0.68;0.60;;;;;;;;;;5069187;28;20344;-71
2020/12/21 04:51:45;;;;;;;3.80;0.95;;;;;;;;;;5068891;28;20040;-71
2020/12/21 04:54:12;;;;;;;0.82;0.70;;;;;;;;;;5068981;28;20039;-70
2020/12/21 04:56:38;;;;;;;1.33;0.50;;;;;;;;;;5068101;28;20028;-71
2020/12/21 04:59:04;;;;;;;0.30;0.30;;;;;;;;;;5069529;28;20378;-71
2020/12/21 05:01:30;;;;;;;0.90;0.60;;;;;;;;;;5068930;28;20465;-71
2020/12/21 05:03:57;;;;;;;0.77;0.77;;;;;;;;;;5068058;28;20032;-71
2020/12/21 05:06:24;;;;;;;0.40;0.40;;;;;;;;;;5066958;28;20036;-71
2020/12/21 05:09:00;;;;;;;0.47;0.40;;;;;;;;;;5069193;28;20544;-71
2020/12/21 05:11:27;;;;;;;1.00;0.75;;;;;;;;;;5067788;28;20106;-71
2020/12/21 05:13:53;;;;;;;0.75;0.43;;;;;;;;;;5068518;28;20058;-71
2020/12/21 05:16:25;;;;;;;0.50;0.50;;;;;;;;;;5068375;28;20032;-71
2020/12/21 05:18:51;;;;;;;0.50;0.50;;;;;;;;;;5068805;28;20020;-71
2020/12/21 05:21:17;;;;;;;1.38;0.38;;;;;;;;;;5068641;28;20099;-71
2020/12/21 05:23:55;;;;;;;0.95;0.68;;;;;;;;;;5068259;28;20032;-71
2020/12/21 05:26:26;;;;;;;0.63;0.63;;;;;;;;;;5067153;28;20037;-71
2020/12/21 05:28:52;;;;;;;0.60;0.50;;;;;;;;;;5067815;28;20127;-71
2020/12/21 05:31:18;;;;;;;0.63;0.63;;;;;;;;;;5068682;28;20024;-71
2020/12/21 05:33:45;;;;;;;0.40;0.40;;;;;;;;;;5067716;28;20204;-71
2020/12/21 05:36:12;;;;;;;0.70;0.43;;;;;;;;;;5067373;28;20029;-71
2020/12/21 05:38:39;;;;;;;1.17;0.93;;;;;;;;;;5067961;28;20028;-71
2020/12/21 05:41:18;;;;;;;1.02;0.50;;;;;;;;;;5068803;28;20540;-71
2020/12/21 05:43:45;;;;;;;0.40;0.38;;;;;;;;;;5067934;28;20028;-71
2020/12/21 05:46:15;;;;;;;0.65;0.40;;;;;;;;;;5067364;28;20098;-71
2020/12/21 05:48:45;;;;;;;0.75;0.65;;;;;;;;;;5068338;28;20425;-71
2020/12/21 05:51:12;;;;;;;0.30;0.30;;;;;;;;;;5068935;28;20047;-71
2020/12/21 05:53:41;;;;;;;1.60;0.70;;;;;;;;;;5067023;28;20043;-71
2020/12/21 05:56:07;;;;;;;0.57;0.57;;;;;;;;;;5068138;28;20025;-71
2020/12/21 05:58:35;;;;;;;0.82;0.60;;;;;;;;;;5067858;28;20045;-71
2020/12/21 06:01:02;;;;;;;0.70;0.30;;;;;;;;;;5068054;28;20032;-71
2020/12/21 06:03:36;;;;;;;0.75;0.57;;;;;;;;;;5067200;28;20213;-71
2020/12/21 06:06:06;;;;;;;0.40;0.40;;;;;;;;;;5067032;28;20398;-71
2020/12/21 06:08:33;;;;;;;0.98;0.65;;;;;;;;;;5067788;28;20056;-71
2020/12/21 06:11:08;;;;;;;0.52;0.35;;;;;;;;;;5067793;28;20033;-71
2020/12/21 06:13:37;;;;;;;0.70;0.50;;;;;;;;;;5067136;28;20123;-71
2020/12/21 06:16:03;;;;;;;0.63;0.40;;;;;;;;;;5068118;28;20021;-71
2020/12/21 06:18:29;;;;;;;1.48;0.70;;;;;;;;;;5067004;28;20120;-71
2020/12/21 06:20:55;;;;;;;0.93;0.88;;;;;;;;;;5068004;28;20036;-71
2020/12/21 06:23:29;;;;;;;2.60;1.15;;;;;;;;;;5066652;28;20064;-71
2020/12/21 06:26:06;;;;;;;1.15;0.47;;;;;;;;;;5067929;28;20048;-71
2020/12/21 06:28:32;;;;;;;1.20;0.77;;;;;;;;;;5067726;28;20056;-71
2020/12/21 06:31:09;;;;;;;0.57;0.57;;;;;;;;;;5067182;28;20069;-71
2020/12/21 06:33:39;;;;;;;0.30;0.30;;;;;;;;;;5066947;28;20475;-71
2020/12/21 06:36:05;;;;;;;0.43;0.38;;;;;;;;;;5066426;28;20025;-71
2020/12/21 06:38:48;;;;;;;0.47;0.40;;;;;;;;;;5066977;28;20403;-71
2020/12/21 06:41:16;;;;;;;0.63;0.40;;;;;;;;;;5068292;28;20394;-71
2020/12/21 06:43:53;;;;;;;0.60;0.60;;;;;;;;;;5068269;28;20028;-71
2020/12/21 06:46:20;;;;;;;2.63;0.57;;;;;;;;;;5061963;28;20025;-71
2020/12/21 06:48:49;;;;;;;0.63;0.50;;;;;;;;;;5064181;28;20329;-71
2020/12/21 06:51:16;;;;;;;0.40;0.40;;;;;;;;;;5066534;28;20028;-71
2020/12/21 06:53:42;;;;;;;0.70;0.40;;;;;;;;;;5066809;28;20037;-71
2020/12/21 06:56:14;;;;;;;1.05;0.90;;;;;;;;;;5066372;28;20028;-71
2020/12/21 06:58:40;;;;;;;1.15;0.70;;;;;;;;;;5069963;28;20032;-71
2020/12/21 07:01:06;;;;;;;1.42;1.13;;;;;;;;;;5071377;28;20487;-71
2020/12/21 07:03:32;;;;;;;0.80;0.68;;;;;;;;;;5068744;28;20031;-71
2020/12/21 07:05:59;;;;;;;1.15;0.55;;;;;;;;;;5069158;28;20040;-71
2020/12/21 07:08:25;;;;;;;1.00;0.82;;;;;;;;;;5067775;28;20407;-71
2020/12/21 07:10:57;;;;;;;1.48;1.38;;;;;;;;;;5061982;28;20050;-71
2020/12/21 07:13:24;;;;;;;1.20;0.73;;;;;;;;;;5048038;28;20303;-71
2020/12/21 07:15:50;;;;;;;1.40;0.80;;;;;;;;;;5049204;28;20029;-70
2020/12/21 07:18:17;;;;;;;1.73;0.82;;;;;;;;;;5048719;28;20033;-71
2020/12/21 07:20:43;;;;;;;1.63;1.38;;;;;;;;;;5068938;28;20360;-70
2020/12/21 07:23:10;;;;;;;1.77;1.00;;;;;;;;;;5069598;28;20025;-71
2020/12/21 07:25:36;;;;;;;1.48;0.98;;;;;;;;;;5068973;28;20130;-71
2020/12/21 07:28:02;;;;;;;2.50;2.30;;;;;;;;;;5068704;28;20087;-72
2020/12/21 07:30:28;;;;;;;3.78;3.00;;;;;;;;;;5058463;28;20039;-73
2020/12/21 07:32:54;;;;;;;4.68;2.58;;;;;;;;;;5043872;28;20372;-72
2020/12/21 07:35:20;;;;;;;5.32;3.20;;;;;;;;;;5053694;28;20305;-72
2020/12/21 07:37:46;;;;;;;5.85;3.42;;;;;;;;;;5066026;28;20082;-72
2020/12/21 07:40:22;;;;;;;4.50;2.50;;;;;;;;;;5066404;28;20035;-73
2020/12/21 07:42:54;;;;;;;4.90;3.13;;;;;;;;;;5066785;28;20021;-71
2020/12/21 07:45:22;;;;;;;4.70;2.97;;;;;;;;;;5064394;28;20105;-71
2020/12/21 07:47:49;;;;;;;3.42;2.92;;;;;;;;;;5048466;28;20024;-71
2020/12/21 07:50:15;;;;;;;3.95;2.78;;;;;;;;;;5049222;28;20032;-73
2020/12/21 07:52:41;;;;;;;3.60;2.40;;;;;;;;;;5055063;28;20099;-72
2020/12/21 07:55:09;;;;;;;5.60;3.13;;;;;;;;;;5066053;28;20062;-72
2020/12/21 07:57:35;;;;;;;2.80;2.28;;;;;;;;;;5061403;28;20089;-72
2020/12/21 08:00:02;;;;;;;2.50;2.30;;;;;;;;;;5053522;28;20029;-71
2020/12/21 08:02:28;;;;;;;2.45;1.83;;;;;;;;;;5064802;28;20047;-71
2020/12/21 08:04:54;;;;;;;2.85;2.20;;;;;;;;;;5067128;28;20044;-71
2020/12/21 08:07:26;;;;;;;3.25;2.15;;;;;;;;;;5062355;28;20033;-72
2020/12/21 08:09:52;;;;;;;2.55;1.70;;;;;;;;;;5064257;28;20367;-71
2020/12/21 08:12:18;;;;;;;4.82;2.80;;;;;;;;;;5066966;28;20040;-71
2020/12/21 08:14:45;;;;;;;3.00;2.13;;;;;;;;;;5067543;28;20386;-71
2020/12/21 08:17:18;;;;;;;3.33;2.55;;;;;;;;;;5068620;28;20028;-71
2020/12/21 08:19:47;;;;;;;3.33;3.03;;;;;;;;;;5065340;28;20020;-73
2020/12/21 08:22:13;;;;;;;5.53;3.47;;;;;;;;;;5052056;28;20032;-73
2020/12/21 08:24:39;;;;;;;7.47;5.28;;;;;;;;;;5055650;28;20032;-74
2020/12/21 08:27:06;;;;;;;8.27;5.88;;;;;;;;;;5055296;28;20059;-73
2020/12/21 08:29:32;;;;;;;10.60;6.70;;;;;;;;;;5054166;28;20094;-73
2020/12/21 08:31:58;;;;;;;11.48;8.07;;;;;;;;;;5056165;28;20036;-73
2020/12/21 08:34:25;;;;;;;10.10;7.22;;;;;;;;;;5054266;28;20036;-73
2020/12/21 08:36:51;;;;;;;11.65;7.20;;;;;;;;;;5052132;28;20033;-73
2020/12/21 08:39:18;;;;;;;13.80;5.75;;;;;;;;;;5054225;28;20394;-72
2020/12/21 08:41:45;;;;;;;9.13;6.72;;;;;;;;;;5055372;28;20479;-73
2020/12/21 08:44:13;;;;;;;13.70;6.68;;;;;;;;;;5055406;28;20040;-73
2020/12/21 08:46:46;;;;;;;7.95;6.03;;;;;;;;;;5052816;28;20046;-73
2020/12/21 08:49:12;;;;;;;7.50;5.80;;;;;;;;;;5054008;28;20429;-72
2020/12/21 08:51:39;;;;;;;7.70;5.28;;;;;;;;;;5054522;28;20608;-75
2020/12/21 08:54:05;;;;;;;5.82;5.10;;;;;;;;;;5055055;28;20035;-72
2020/12/21 08:56:31;;;;;;;7.72;5.15;;;;;;;;;;5052368;28;20032;-72
2020/12/21 08:58:57;;;;;;;6.30;4.75;;;;;;;;;;5066011;28;20387;-73
2020/12/21 09:01:23;;;;;;;6.70;4.90;;;;;;;;;;5064270;28;20067;-74
2020/12/21 09:03:49;;;;;;;6.20;5.00;;;;;;;;;;5066003;28;20029;-73
2020/12/21 09:06:19;;;;;;;5.85;5.10;;;;;;;;;;5062271;28;20131;-73
2020/12/21 09:08:45;;;;;;;5.28;4.57;;;;;;;;;;5067602;28;20035;-73
2020/12/21 09:11:11;;;;;;;6.53;4.50;;;;;;;;;;5068958;28;20033;-73
2020/12/21 09:13:41;;;;;;;6.57;4.82;;;;;;;;;;5068202;28;20055;-73
2020/12/21 09:16:07;;;;;;;6.07;4.60;;;;;;;;;;5067508;28;20024;-73
2020/12/21 09:18:33;;;;;;;5.30;4.25;;;;;;;;;;5068524;28;20024;-73
2020/12/21 09:20:59;;;;;;;5.22;4.65;;;;;;;;;;5068056;28;20091;-74
2020/12/21 09:23:26;;;;;;;6.13;4.60;;;;;;;;;;5068824;28;20028;-73
2020/12/21 09:25:52;;;;;;;7.18;4.78;;;;;;;;;;5069429;28;20040;-73
2020/12/21 09:28:18;;;;;;;7.70;4.90;;;;;;;;;;5068267;28;20051;-73
2020/12/21 09:30:44;;;;;;;5.55;4.93;;;;;;;;;;5069280;28;20036;-74
2020/12/21 09:33:10;;;;;;;6.30;4.90;;;;;;;;;;5067466;28;20032;-73
2020/12/21 09:35:36;;;;;;;10.00;7.03;;;;;;;;;;5067043;28;20118;-72
2020/12/21 09:38:02;;;;;;;8.85;6.30;;;;;;;;;;5069425;28;20032;-73
2020/12/21 09:40:28;;;;;;;7.65;5.82;;;;;;;;;;5068466;28;20033;-72
2020/12/21 09:42:54;;;;;;;7.97;6.78;;;;;;;;;;5069385;28;20494;-73
2020/12/21 09:45:20;;;;;;;9.25;6.53;;;;;;;;;;5068453;28;20219;-72
2020/12/21 09:47:46;;;;;;;10.65;6.68;;;;;;;;;;5069271;28;20052;-73
2020/12/21 09:50:13;;;;;;;9.13;5.65;;;;;;;;;;5069639;28;20205;-73
2020/12/21 09:52:39;;;;;;;9.35;6.47;;;;;;;;;;5068389;28;20132;-73
2020/12/21 09:55:05;;;;;;;7.10;5.63;;;;;;;;;;5069189;28;20093;-73
2020/12/21 09:57:31;;;;;;;8.95;6.05;;;;;;;;;;5068193;28;20032;-73
2020/12/21 09:59:57;;;;;;;7.93;6.10;;;;;;;;;;5069308;28;20024;-72
2020/12/21 10:02:24;;;;;;;12.40;6.93;;;;;;;;;;5067554;28;20036;-72
2020/12/21 10:04:50;;;;;;;9.15;6.10;;;;;;;;;;5068172;28;20112;-72
2020/12/21 10:07:16;;;;;;;9.60;7.25;;;;;;;;;;5068862;28;20032;-73
2020/12/21 10:09:42;;;;;;;7.00;5.28;;;;;;;;;;5064644;28;20065;-70
2020/12/21 10:12:08;;;;;;;8.23;5.22;;;;;;;;;;5048958;28;20029;-73
2020/12/21 10:14:34;;;;;;;8.88;5.47;;;;;;;;;;5047495;28;20033;-73
2020/12/21 10:17:00;;;;;;;7.00;5.63;;;;;;;;;;5059212;28;20059;-72
2020/12/21 10:19:27;;;;;;;14.38;7.50;;;;;;;;;;5069089;28;20067;-72
2020/12/21 10:21:53;;;;;;;6.93;4.78;;;;;;;;;;5068508;28;20021;-72
2020/12/21 10:24:19;;;;;;;5.57;4.63;;;;;;;;;;5067200;28;20035;-72
2020/12/21 10:26:45;;;;;;;5.43;4.93;;;;;;;;;;5068199;28;20033;-72
2020/12/21 10:29:11;;;;;;;8.25;5.93;;;;;;;;;;5056597;28;20032;-72
2020/12/21 10:31:37;;;;;;;5.22;4.60;;;;;;;;;;5066898;28;20293;-72
2020/12/21 10:34:04;;;;;;;5.90;5.30;;;;;;;;;;5072496;28;20040;-72
2020/12/21 10:36:30;;;;;;;8.95;4.43;;;;;;;;;;5071618;28;20033;-72
2020/12/21 10:38:56;;;;;;;7.88;4.93;;;;;;;;;;5070936;28;20046;-73
2020/12/21 10:41:22;;;;;;;5.35;4.95;;;;;;;;;;5070569;28;20024;-72
2020/12/21 10:43:48;;;;;;;6.68;4.47;;;;;;;;;;5072222;28;20078;-72
2020/12/21 10:46:20;;;;;;;6.45;4.97;;;;;;;;;;5072926;28;20572;-73
2020/12/21 10:48:46;;;;;;;7.13;5.15;;;;;;;;;;5072728;28;20032;-72
2020/12/21 10:51:12;;;;;;;4.95;3.88;;;;;;;;;;5072774;28;20368;-73
2020/12/21 10:53:38;;;;;;;5.65;3.85;;;;;;;;;;5070659;28;20035;-73
2020/12/21 10:56:04;;;;;;;6.03;4.75;;;;;;;;;;5071962;28;20216;-74
2020/12/21 10:58:31;;;;;;;6.28;4.35;;;;;;;;;;5072128;28;20024;-72
2020/12/21 11:00:57;;;;;;;4.57;3.78;;;;;;;;;;5072469;28;20063;-72
2020/12/21 11:03:23;;;;;;;5.65;4.70;;;;;;;;;;5071264;28;20043;-72
2020/12/21 11:05:49;;;;;;;4.85;4.43;;;;;;;;;;5072252;28;20048;-72
2020/12/21 11:08:17;;;;;;;7.82;3.58;;;;;;;;;;5072113;28;20103;-72
2020/12/21 11:10:43;;;;;;;4.75;4.03;;;;;;;;;;5072420;28;20033;-72
2020/12/21 11:13:09;;;;;;;4.60;3.95;;;;;;;;;;5070863;28;20075;-72
2020/12/21 11:15:35;;;;;;;5.43;3.35;;;;;;;;;;5071057;28;20368;-73
2020/12/21 11:18:01;;;;;;;4.55;3.70;;;;;;;;;;5072760;28;20028;-72
2020/12/21 11:20:28;;;;;;;5.55;3.50;;;;;;;;;;5071373;28;20035;-72
2020/12/21 11:22:54;;;;;;;4.57;4.18;;;;;;;;;;5070869;28;20031;-73
2020/12/21 11:25:21;;;;;;;5.68;4.93;;;;;;;;;;5070447;28;20033;-72
2020/12/21 11:27:47;;;;;;;6.10;4.88;;;;;;;;;;5046520;28;20045;-72
2020/12/21 11:30:13;;;;;;;5.10;4.53;;;;;;;;;;5032685;28;20029;-74
2020/12/21 11:32:39;;;;;;;8.23;4.68;;;;;;;;;;5031718;28;20034;-69
2020/12/21 11:35:06;;;;;;;4.00;3.60;;;;;;;;;;5032326;28;20018;-72
2020/12/21 11:37:32;;;;;;;7.28;4.97;;;;;;;;;;5029146;28;20021;-73
2020/12/21 11:39:58;;;;;;;4.25;3.35;;;;;;;;;;5032662;28;20029;-72
2020/12/21 11:42:24;;;;;;;5.68;3.88;;;;;;;;;;5032163;28;20499;-72
2020/12/21 11:44:50;;;;;;;5.60;3.70;;;;;;;;;;5052109;28;20365;-72
2020/12/21 11:47:16;;;;;;;5.05;4.10;;;;;;;;;;5051773;28;20068;-72
2020/12/21 11:49:42;;;;;;;6.75;4.22;;;;;;;;;;5051463;28;20507;-73
2020/12/21 11:52:08;;;;;;;5.22;3.92;;;;;;;;;;5052193;28;20075;-72
2020/12/21 11:54:34;;;;;;;5.50;3.75;;;;;;;;;;5050846;28;20484;-72
2020/12/21 11:57:01;;;;;;;3.95;3.35;;;;;;;;;;5051602;28;20025;-72
2020/12/21 11:59:27;;;;;;;4.88;3.15;;;;;;;;;;5043245;28;20060;-72
2020/12/21 12:01:59;;;;;;;6.18;4.57;;;;;;;;;;5031350;28;20384;-72
2020/12/21 12:04:26;;;;;;;5.25;4.18;;;;;;;;;;5030454;28;20025;-72
2020/12/21 12:06:53;;;;;;;4.15;3.63;;;;;;;;;;5031504;28;20037;-72
2020/12/21 12:09:20;;;;;;;5.72;4.82;;;;;;;;;;5031048;28;20061;-72
2020/12/21 12:11:46;;;;;;;3.90;3.53;;;;;;;;;;5030487;28;20032;-72
2020/12/21 12:14:13;;;;;;;5.25;4.22;;;;;;;;;;5031629;28;20033;-72
2020/12/21 12:16:39;;;;;;;5.88;4.38;;;;;;;;;;5030783;28;20468;-72
2020/12/21 12:19:05;;;;;;;6.60;5.35;;;;;;;;;;5031457;28;20400;-72
2020/12/21 12:21:31;;;;;;;12.07;6.43;;;;;;;;;;5030742;28;20026;-72
2020/12/21 12:23:57;;;;;;;7.30;6.53;;;;;;;;;;5031318;28;20064;-73
2020/12/21 12:26:25;;;;;;;7.85;5.28;;;;;;;;;;5029785;28;20480;-73
2020/12/21 12:28:53;;;;;;;9.63;6.47;;;;;;;;;;5060112;28;20049;-73
2020/12/21 12:31:20;;;;;;;10.25;7.35;;;;;;;;;;5049673;28;20039;-72
2020/12/21 12:33:46;;;;;;;9.50;6.40;;;;;;;;;;5050525;28;20028;-72
2020/12/21 12:36:19;;;;;;;6.00;5.30;;;;;;;;;;5069738;28;20103;-72
2020/12/21 12:38:45;;;;;;;8.68;7.45;;;;;;;;;;5066776;28;20032;-72
2020/12/21 12:41:11;;;;;;;10.02;5.93;;;;;;;;;;5066981;28;20107;-72
2020/12/21 12:43:37;;;;;;;7.97;6.65;;;;;;;;;;5050126;28;20086;-72
2020/12/21 12:46:03;;;;;;;6.57;5.82;;;;;;;;;;5050920;28;20048;-71
2020/12/21 12:48:30;;;;;;;5.18;4.13;;;;;;;;;;5049654;28;20462;-73
2020/12/21 12:50:56;;;;;;;9.73;6.90;;;;;;;;;;5067439;28;20448;-72
2020/12/21 12:53:22;;;;;;;8.68;6.00;;;;;;;;;;5053758;28;20025;-72
2020/12/21 12:55:48;;;;;;;8.13;6.07;;;;;;;;;;5050058;28;20028;-72
2020/12/21 12:58:14;;;;;;;6.07;5.40;;;;;;;;;;5058399;28;20420;-72
2020/12/21 13:00:41;;;;;;;7.90;7.07;;;;;;;;;;5049459;28;20037;-72
2020/12/21 13:03:07;;;;;;;6.45;5.28;;;;;;;;;;5053311;28;20051;-72
2020/12/21 13:05:34;;;;;;;7.03;5.97;;;;;;;;;;5067555;28;20656;-72
2020/12/21 13:08:00;;;;;;;5.38;4.88;;;;;;;;;;5069877;28;20086;-70
2020/12/21 13:10:26;;;;;;;6.75;5.63;;;;;;;;;;5059675;28;20444;-71
2020/12/21 13:12:53;;;;;;;6.40;4.80;;;;;;;;;;5050068;28;20534;-71
2020/12/21 13:15:19;;;;;;;6.00;5.40;;;;;;;;;;5049352;28;20376;-70
2020/12/21 13:17:45;;;;;;;7.30;6.57;;;;;;;;;;5050139;28;20107;-71
2020/12/21 13:20:11;;;;;;;5.30;4.90;;;;;;;;;;5050125;28;20036;-71
2020/12/21 13:22:37;;;;;;;7.05;6.43;;;;;;;;;;5048918;28;20032;-71
2020/12/21 13:25:03;;;;;;;9.75;5.57;;;;;;;;;;5049963;28;20387;-74
2020/12/21 13:27:31;;;;;;;5.07;4.63;;;;;;;;;;5045704;28;20510;-71
2020/12/21 13:29:57;;;;;;;8.07;5.65;;;;;;;;;;5050266;28;20021;-71
2020/12/21 13:32:23;;;;;;;5.63;5.05;;;;;;;;;;5047673;28;20035;-71
2020/12/21 13:34:49;;;;;;;7.70;5.72;;;;;;;;;;5049298;28;20120;-71
2020/12/21 13:37:16;;;;;;;5.40;4.57;;;;;;;;;;5049466;28;20361;-70
2020/12/21 13:39:42;;;;;;;6.28;5.10;;;;;;;;;;5049817;28;20084;-72
2020/12/21 13:42:08;;;;;;;6.72;5.72;;;;;;;;;;5050171;28;20367;-72
2020/12/21 13:44:34;;;;;;;6.70;5.05;;;;;;;;;;5049214;28;20025;-70
2020/12/21 13:47:00;;;;;;;7.22;6.28;;;;;;;;;;5050972;28;20099;-71
2020/12/21 13:49:27;;;;;;;5.93;4.72;;;;;;;;;;5052502;28;20078;-70
2020/12/21 13:51:53;;;;;;;5.68;5.20;;;;;;;;;;5049659;28;20031;-70
2020/12/21 13:54:19;;;;;;;5.47;4.93;;;;;;;;;;5048664;28;20040;-70
2020/12/21 13:56:45;;;;;;;7.88;5.13;;;;;;;;;;5049415;28;20119;-70
2020/12/21 13:59:12;;;;;;;4.43;4.03;;;;;;;;;;5054953;28;20021;-70
2020/12/21 14:01:38;;;;;;;5.78;4.88;;;;;;;;;;5068776;28;20047;-70
2020/12/21 14:04:04;;;;;;;5.20;4.50;;;;;;;;;;5068739;28;20021;-70
2020/12/21 14:06:31;;;;;;;5.53;5.03;;;;;;;;;;5067100;28;20063;-70
2020/12/21 14:08:57;;;;;;;5.13;4.63;;;;;;;;;;5066757;28;20032;-70
2020/12/21 14:11:23;;;;;;;4.88;4.45;;;;;;;;;;5068116;28;20040;-71
2020/12/21 14:13:50;;;;;;;5.63;4.57;;;;;;;;;;5069054;28;20329;-71
2020/12/21 14:16:17;;;;;;;7.35;4.05;;;;;;;;;;5047946;28;20021;-71
2020/12/21 14:18:44;;;;;;;6.90;4.50;;;;;;;;;;5048814;28;20033;-71
2020/12/21 14:21:10;;;;;;;4.97;4.32;;;;;;;;;;5049272;28;20112;-72
2020/12/21 14:23:36;;;;;;;12.57;4.68;;;;;;;;;;5048088;28;20033;-71
2020/12/21 14:26:02;;;;;;;5.93;4.63;;;;;;;;;;5049323;28;20033;-71
2020/12/21 14:28:29;;;;;;;5.63;5.13;;;;;;;;;;5052990;28;20388;-71
2020/12/21 14:30:55;;;;;;;7.22;4.28;;;;;;;;;;5052182;28;20029;-71
2020/12/21 14:33:21;;;;;;;5.53;5.03;;;;;;;;;;5067212;28;20051;-71
2020/12/21 14:35:47;;;;;;;5.22;4.18;;;;;;;;;;5068211;28;20031;-71
2020/12/21 14:38:13;;;;;;;4.25;3.85;;;;;;;;;;5069035;28;20442;-71
2020/12/21 14:40:39;;;;;;;6.43;4.15;;;;;;;;;;5053720;28;20028;-70